Time;durP1;ratioP1;P1;durP2;ratioP2;P2;SDS_P1;SDS_P2;PMS_P1;PMS_P2;Temp;Humidity;BMP_temperature;BMP_pressure;BME280_temperature;BME280_humidity;BME280_pressure;Samples;Min_cycle;Max_cycle;Signal;HPM_P1;HPM_P2
2022/06/30 00:01:51;;;;;;;7.75;6.45;;;;;26.10;100996.00;;;;5054699;28;20227;-78
2022/06/30 00:04:18;;;;;;;9.55;6.45;;;;;26.10;100994.00;;;;5049957;28;20203;-78
2022/06/30 00:06:46;;;;;;;8.48;6.38;;;;;26.10;100998.00;;;;5049996;28;20219;-79
2022/06/30 00:09:13;;;;;;;6.72;6.13;;;;;26.10;100990.00;;;;5049613;28;20198;-79
2022/06/30 00:11:41;;;;;;;6.43;5.47;;;;;26.00;100988.00;;;;5050220;28;20259;-79
2022/06/30 00:14:10;;;;;;;9.98;6.18;;;;;26.00;100985.00;;;;5054840;28;20214;-80
2022/06/30 00:16:37;;;;;;;7.22;6.18;;;;;26.00;100985.00;;;;5063005;28;20202;-79
2022/06/30 00:19:05;;;;;;;7.38;6.70;;;;;26.00;100984.00;;;;5054567;28;20221;-79
2022/06/30 00:21:32;;;;;;;6.78;5.78;;;;;26.00;100985.00;;;;5065600;28;20225;-80
2022/06/30 00:23:59;;;;;;;6.40;5.85;;;;;26.00;100976.00;;;;5051179;28;20204;-79
2022/06/30 00:26:27;;;;;;;7.38;6.68;;;;;25.90;100969.00;;;;5051099;28;20302;-79
2022/06/30 00:28:54;;;;;;;8.15;6.43;;;;;25.90;100973.00;;;;5051410;28;20295;-79
2022/06/30 00:31:23;;;;;;;6.88;6.03;;;;;25.90;100969.00;;;;5051115;28;20231;-79
2022/06/30 00:33:51;;;;;;;7.13;6.10;;;;;25.90;100969.00;;;;5050157;28;20704;-79
2022/06/30 00:36:18;;;;;;;6.10;5.50;;;;;25.90;100964.00;;;;5058189;28;20287;-79
2022/06/30 00:38:45;;;;;;;7.72;6.28;;;;;25.90;100966.00;;;;5061729;28;20211;-80
2022/06/30 00:41:13;;;;;;;7.20;5.20;;;;;25.80;100967.00;;;;5062749;28;20753;-78
2022/06/30 00:43:45;;;;;;;6.00;4.90;;;;;25.80;100957.00;;;;5065571;28;20282;-79
2022/06/30 00:46:13;;;;;;;6.50;5.90;;;;;25.80;100959.00;;;;5061206;28;20227;-80
2022/06/30 00:48:42;;;;;;;6.60;6.00;;;;;25.70;100941.00;;;;5066749;28;20210;-79
2022/06/30 00:51:10;;;;;;;11.63;5.10;;;;;25.70;100946.00;;;;5061586;28;20200;-80
2022/06/30 00:53:39;;;;;;;6.00;5.50;;;;;25.70;100936.00;;;;5049725;28;20662;-79
2022/06/30 00:56:08;;;;;;;6.10;5.47;;;;;25.70;100942.00;;;;5049189;28;20561;-79
2022/06/30 00:58:38;;;;;;;7.60;5.70;;;;;25.70;100947.00;;;;5050027;28;20670;-80
2022/06/30 01:01:07;;;;;;;5.70;5.10;;;;;25.60;100953.00;;;;5052543;28;20255;-80
2022/06/30 01:03:36;;;;;;;5.47;5.05;;;;;25.60;100955.00;;;;5064369;28;20209;-80
2022/06/30 01:06:06;;;;;;;6.22;5.10;;;;;25.60;100954.00;;;;5050890;28;20223;-79
2022/06/30 01:08:34;;;;;;;5.90;5.38;;;;;25.60;100960.00;;;;5050076;28;20192;-79
2022/06/30 01:13:48;;;;;;;6.38;5.43;;;;;25.60;100956.00;;;;5049991;28;20579;-80
2022/06/30 01:16:19;;;;;;;7.45;5.97;;;;;25.60;100964.00;;;;5064617;28;20207;-80
2022/06/30 01:18:46;;;;;;;7.55;6.20;;;;;25.60;100959.00;;;;5067293;28;20304;-80
2022/06/30 01:21:17;;;;;;;6.32;5.72;;;;;25.50;100964.00;;;;5050947;28;20196;-79
2022/06/30 01:23:46;;;;;;;5.82;5.32;;;;;25.50;100967.00;;;;5050038;28;20202;-80
2022/06/30 01:26:14;;;;;;;5.93;5.43;;;;;25.50;100971.00;;;;5051395;28;20195;-80
2022/06/30 01:28:41;;;;;;;6.63;5.75;;;;;25.50;100962.00;;;;5066354;28;20286;-80
2022/06/30 01:31:08;;;;;;;6.00;5.30;;;;;25.50;100968.00;;;;5048539;28;20215;-79
2022/06/30 01:33:36;;;;;;;5.82;5.32;;;;;25.50;100973.00;;;;5047114;28;20196;-79
2022/06/30 01:36:04;;;;;;;6.97;6.28;;;;;25.50;100977.00;;;;5049020;28;20192;-79
2022/06/30 01:38:31;;;;;;;7.38;5.93;;;;;25.50;100972.00;;;;5054874;28;20206;-80
2022/06/30 01:41:00;;;;;;;6.25;5.72;;;;;25.50;100978.00;;;;5056721;28;20559;-79
2022/06/30 01:43:27;;;;;;;6.38;5.78;;;;;25.50;100974.00;;;;5059657;28;20309;-80
2022/06/30 01:45:55;;;;;;;6.47;5.82;;;;;25.50;100969.00;;;;5069886;28;20272;-79
2022/06/30 01:48:22;;;;;;;7.00;5.82;;;;;25.50;100958.00;;;;5062194;28;20283;-79
2022/06/30 01:50:50;;;;;;;7.15;6.25;;;;;25.50;100955.00;;;;5052997;28;20653;-79
2022/06/30 01:53:17;;;;;;;6.20;5.60;;;;;25.40;100953.00;;;;5069674;28;20217;-79
2022/06/30 01:55:44;;;;;;;6.90;6.15;;;;;25.50;100959.00;;;;5061024;28;20235;-79
2022/06/30 01:58:13;;;;;;;7.63;5.70;;;;;25.50;100959.00;;;;5066978;28;20195;-79
2022/06/30 02:00:41;;;;;;;6.15;5.55;;;;;25.50;100959.00;;;;5066379;28;20195;-80
2022/06/30 02:03:08;;;;;;;6.53;5.88;;;;;25.50;100965.00;;;;5058300;28;20314;-80
2022/06/30 02:05:36;;;;;;;6.18;5.65;;;;;25.50;100963.00;;;;5056611;28;20219;-79
2022/06/30 02:08:04;;;;;;;7.10;5.05;;;;;25.50;100959.00;;;;5053917;28;20310;-80
2022/06/30 02:10:32;;;;;;;6.95;5.50;;;;;25.50;100954.00;;;;5049626;28;20282;-80
2022/06/30 02:12:59;;;;;;;5.18;4.68;;;;;25.50;100963.00;;;;5048960;28;20294;-80
2022/06/30 02:15:33;;;;;;;6.28;5.68;;;;;25.50;100954.00;;;;5047805;28;20286;-80
2022/06/30 02:18:03;;;;;;;6.00;5.50;;;;;25.50;100954.00;;;;5048652;28;20683;-80
2022/06/30 02:20:30;;;;;;;6.38;5.78;;;;;25.50;100955.00;;;;5048875;28;20295;-79
2022/06/30 02:23:00;;;;;;;6.15;5.32;;;;;25.50;100961.00;;;;5047937;28;20223;-79
2022/06/30 02:25:29;;;;;;;8.18;5.93;;;;;25.50;100959.00;;;;5047694;28;20202;-80
2022/06/30 02:27:57;;;;;;;7.05;4.55;;;;;25.50;100960.00;;;;5048616;28;20670;-80
2022/06/30 02:30:26;;;;;;;6.88;5.10;;;;;25.50;100959.00;;;;5047694;28;20219;-79
2022/06/30 02:32:54;;;;;;;4.68;4.28;;;;;25.50;100963.00;;;;5052913;28;20204;-79
2022/06/30 02:35:21;;;;;;;5.85;4.88;;;;;25.50;100954.00;;;;5048148;28;20227;-80
2022/06/30 02:37:49;;;;;;;5.47;4.97;;;;;25.50;100963.00;;;;5047558;28;20207;-79
2022/06/30 02:40:17;;;;;;;6.35;5.00;;;;;25.50;100961.00;;;;5048149;28;20303;-80
2022/06/30 02:42:44;;;;;;;6.15;5.55;;;;;25.50;100958.00;;;;5063033;28;20223;-80
2022/06/30 02:45:12;;;;;;;6.97;5.82;;;;;25.50;100960.00;;;;5054788;28;20219;-79
2022/06/30 02:47:42;;;;;;;5.22;4.75;;;;;25.50;100956.00;;;;5063359;28;20213;-80
2022/06/30 02:50:11;;;;;;;5.47;4.97;;;;;25.50;100955.00;;;;5047188;28;20294;-79
2022/06/30 02:52:39;;;;;;;6.30;5.70;;;;;25.50;100955.00;;;;5047937;28;20290;-80
2022/06/30 02:55:08;;;;;;;5.78;5.28;;;;;25.50;100946.00;;;;5047497;28;20330;-79
2022/06/30 02:57:36;;;;;;;5.60;5.05;;;;;25.50;100947.00;;;;5048099;28;20204;-80
2022/06/30 03:00:05;;;;;;;6.00;5.07;;;;;25.50;100936.00;;;;5072000;28;20210;-80
2022/06/30 03:02:33;;;;;;;5.20;4.68;;;;;25.50;100938.00;;;;5057104;28;20310;-79
2022/06/30 03:05:02;;;;;;;6.45;5.75;;;;;25.50;100943.00;;;;5070755;28;20297;-80
2022/06/30 03:07:29;;;;;;;5.53;4.85;;;;;25.50;100940.00;;;;5071422;28;20206;-80
2022/06/30 03:09:56;;;;;;;5.68;5.13;;;;;25.50;100947.00;;;;5072678;28;20197;-79
2022/06/30 03:12:24;;;;;;;5.55;4.93;;;;;25.40;100942.00;;;;5056572;28;20645;-79
2022/06/30 03:14:51;;;;;;;6.22;5.38;;;;;25.40;100947.00;;;;5072434;28;20751;-79
2022/06/30 03:17:19;;;;;;;6.10;4.88;;;;;25.40;100946.00;;;;5055191;28;20214;-80
2022/06/30 03:19:46;;;;;;;4.78;4.38;;;;;25.40;100949.00;;;;5052298;28;20235;-80
2022/06/30 03:22:15;;;;;;;6.70;5.80;;;;;25.30;100981.00;;;;5060262;28;20230;-80
2022/06/30 03:24:42;;;;;;;8.07;6.00;;;;;25.30;100974.00;;;;5052170;28;20212;-80
2022/06/30 03:27:09;;;;;;;7.75;6.53;;;;;25.30;100949.00;;;;5058664;28;20572;-78
2022/06/30 03:29:37;;;;;;;7.32;6.57;;;;;25.20;100962.00;;;;5052977;28;20206;-79
2022/06/30 03:32:05;;;;;;;8.57;7.20;;;;;25.20;100986.00;;;;5054565;28;20217;-78
2022/06/30 03:34:32;;;;;;;7.78;7.07;;;;;25.20;100961.00;;;;5073355;28;20575;-78
2022/06/30 03:36:59;;;;;;;8.80;7.82;;;;;25.20;100979.00;;;;5067108;28;20195;-80
2022/06/30 03:39:28;;;;;;;8.10;7.25;;;;;25.10;100966.00;;;;5051418;28;20199;-78
2022/06/30 03:41:55;;;;;;;9.60;6.18;;;;;25.10;100977.00;;;;5055078;28;20442;-78
2022/06/30 03:44:23;;;;;;;7.78;6.82;;;;;25.10;100962.00;;;;5054996;28;20376;-80
2022/06/30 03:46:50;;;;;;;8.35;7.55;;;;;25.10;100940.00;;;;5053397;28;20211;-80
2022/06/30 03:49:18;;;;;;;7.63;6.88;;;;;25.10;100944.00;;;;5064087;28;20206;-79
2022/06/30 03:51:45;;;;;;;7.60;6.90;;;;;25.10;100940.00;;;;5056189;28;20212;-79
2022/06/30 03:54:12;;;;;;;7.18;6.45;;;;;25.10;100939.00;;;;5064058;28;20583;-79
2022/06/30 03:56:41;;;;;;;8.65;7.75;;;;;25.10;100949.00;;;;5050233;28;20878;-79
2022/06/30 03:59:08;;;;;;;7.60;6.72;;;;;25.10;100939.00;;;;5051224;28;20191;-79
2022/06/30 04:01:36;;;;;;;6.85;6.15;;;;;25.10;100939.00;;;;5053556;28;20755;-79
2022/06/30 04:04:03;;;;;;;6.70;6.03;;;;;25.10;100937.00;;;;5070524;28;20240;-79
2022/06/30 04:06:33;;;;;;;7.10;5.82;;;;;25.10;100934.00;;;;5061466;28;20282;-80
2022/06/30 04:09:01;;;;;;;7.32;6.63;;;;;25.10;100931.00;;;;5055599;28;20198;-80
2022/06/30 04:11:28;;;;;;;6.70;6.10;;;;;25.10;100931.00;;;;5052938;28;20207;-79
2022/06/30 04:13:58;;;;;;;6.28;5.65;;;;;25.00;100929.00;;;;5062345;28;20195;-79
2022/06/30 04:16:25;;;;;;;7.38;6.68;;;;;25.00;100938.00;;;;5061824;28;20196;-79
2022/06/30 04:18:54;;;;;;;6.57;5.97;;;;;25.00;100940.00;;;;5067178;28;20206;-79
2022/06/30 04:21:21;;;;;;;7.03;6.32;;;;;25.00;100937.00;;;;5068813;28;20195;-79
2022/06/30 04:23:49;;;;;;;7.05;6.03;;;;;25.00;100932.00;;;;5068856;28;20222;-79
2022/06/30 04:26:16;;;;;;;6.95;5.78;;;;;25.00;100931.00;;;;5048477;28;20916;-79
2022/06/30 04:28:43;;;;;;;6.65;6.03;;;;;25.10;100931.00;;;;5051047;28;21103;-79
2022/06/30 04:33:57;;;;;;;7.70;6.75;;;;;25.10;100923.00;;;;5052928;28;20240;-80
2022/06/30 04:36:24;;;;;;;7.82;6.55;;;;;25.10;100921.00;;;;5069094;28;20199;-79
2022/06/30 04:38:52;;;;;;;7.78;6.85;;;;;25.10;100919.00;;;;5054597;28;20202;-79
2022/06/30 04:41:24;;;;;;;6.72;6.07;;;;;25.10;100917.00;;;;5050061;28;20188;-79
2022/06/30 04:43:52;;;;;;;8.38;6.78;;;;;25.10;100918.00;;;;5059000;28;20692;-80
2022/06/30 04:46:22;;;;;;;7.13;6.38;;;;;25.10;100929.00;;;;5056179;28;20222;-80
2022/06/30 04:48:49;;;;;;;7.63;6.60;;;;;25.20;100930.00;;;;5058449;28;20203;-80
2022/06/30 04:51:17;;;;;;;8.90;7.38;;;;;25.20;100927.00;;;;5049593;28;20200;-80
2022/06/30 04:53:45;;;;;;;8.55;6.57;;;;;25.20;100928.00;;;;5049243;28;20239;-80
2022/06/30 04:56:13;;;;;;;11.80;8.02;;;;;25.30;100935.00;;;;5050723;28;20662;-80
2022/06/30 04:58:41;;;;;;;7.32;6.60;;;;;25.30;100930.00;;;;5053729;28;20195;-79
2022/06/30 05:01:08;;;;;;;7.22;6.25;;;;;25.40;100940.00;;;;5058643;28;20199;-80
2022/06/30 05:03:38;;;;;;;6.75;6.15;;;;;25.40;100939.00;;;;5054498;28;20223;-79
2022/06/30 05:06:06;;;;;;;7.20;6.50;;;;;25.50;100940.00;;;;5056874;28;20205;-79
2022/06/30 05:08:34;;;;;;;8.65;6.45;;;;;25.50;100936.00;;;;5052755;28;20658;-79
2022/06/30 05:11:01;;;;;;;7.72;6.40;;;;;25.50;100939.00;;;;5050651;28;20298;-80
2022/06/30 05:13:29;;;;;;;7.85;7.10;;;;;25.60;100946.00;;;;5060867;28;20196;-80
2022/06/30 05:15:56;;;;;;;7.25;6.50;;;;;25.60;100944.00;;;;5058729;28;20194;-80
2022/06/30 05:18:26;;;;;;;7.97;7.13;;;;;25.60;100944.00;;;;5069020;28;20206;-80
2022/06/30 05:20:55;;;;;;;7.28;6.35;;;;;25.70;100944.00;;;;5060212;28;20294;-79
2022/06/30 05:23:23;;;;;;;8.45;7.13;;;;;25.70;100957.00;;;;5062541;28;20713;-80
2022/06/30 05:28:35;;;;;;;9.27;8.38;;;;;25.80;100959.00;;;;5052932;28;20203;-79
2022/06/30 05:31:02;;;;;;;10.88;8.82;;;;;25.90;100971.00;;;;5060666;28;20217;-80
2022/06/30 05:33:30;;;;;;;11.45;9.35;;;;;25.90;100957.00;;;;5044441;28;20669;-78
2022/06/30 05:35:59;;;;;;;9.77;8.77;;;;;25.90;100953.00;;;;5046276;28;20344;-78
2022/06/30 05:38:27;;;;;;;9.60;8.57;;;;;26.00;100968.00;;;;5045274;28;20199;-78
2022/06/30 05:40:54;;;;;;;10.48;8.88;;;;;26.00;100947.00;;;;5043334;28;20203;-78
2022/06/30 05:43:21;;;;;;;12.23;8.90;;;;;26.10;100963.00;;;;5046636;28;20713;-79
2022/06/30 05:45:50;;;;;;;11.18;10.02;;;;;26.10;100950.00;;;;5048573;28;20217;-81
2022/06/30 05:48:19;;;;;;;12.68;10.43;;;;;26.20;100953.00;;;;5052438;28;21064;-78
2022/06/30 05:50:47;;;;;;;11.75;9.43;;;;;26.20;100950.00;;;;5046552;28;20200;-76
2022/06/30 05:53:16;;;;;;;10.32;8.93;;;;;26.30;100957.00;;;;5048520;28;20223;-75
2022/06/30 05:55:43;;;;;;;10.20;9.18;;;;;26.30;100961.00;;;;5048864;28;20282;-77
2022/06/30 05:58:14;;;;;;;11.02;8.65;;;;;26.40;100969.00;;;;5048298;28;20202;-77
2022/06/30 06:00:42;;;;;;;13.07;10.63;;;;;26.40;100969.00;;;;5049499;28;20294;-77
2022/06/30 06:03:09;;;;;;;11.43;10.20;;;;;26.50;100964.00;;;;5051729;28;20222;-77
2022/06/30 06:05:37;;;;;;;11.38;10.10;;;;;26.50;100962.00;;;;5049233;28;20199;-77
2022/06/30 06:08:08;;;;;;;12.05;10.55;;;;;26.50;100970.00;;;;5062325;28;20202;-77
2022/06/30 06:10:38;;;;;;;12.18;9.55;;;;;26.60;100967.00;;;;5052150;28;20192;-76
2022/06/30 06:13:05;;;;;;;13.32;10.10;;;;;26.60;100971.00;;;;5048023;28;20198;-77
2022/06/30 06:15:33;;;;;;;14.38;9.98;;;;;26.60;100968.00;;;;5048855;28;20203;-77
2022/06/30 06:18:01;;;;;;;12.00;10.73;;;;;26.70;100970.00;;;;5048437;28;20206;-77
2022/06/30 06:20:28;;;;;;;10.70;9.75;;;;;26.70;100969.00;;;;5048465;28;20195;-76
2022/06/30 06:22:55;;;;;;;11.60;10.30;;;;;26.70;100964.00;;;;5048307;28;20195;-76
2022/06/30 06:25:23;;;;;;;11.35;10.10;;;;;26.70;100960.00;;;;5048515;28;20195;-76
2022/06/30 06:30:36;;;;;;;11.27;9.32;;;;;26.80;100970.00;;;;5052482;28;20601;-76
2022/06/30 06:33:04;;;;;;;11.55;10.35;;;;;26.80;100967.00;;;;5056190;28;20195;-76
2022/06/30 06:35:31;;;;;;;14.00;10.60;;;;;26.90;100968.00;;;;5048244;28;20205;-76
2022/06/30 06:37:58;;;;;;;10.98;9.80;;;;;26.90;100965.00;;;;5055765;28;20684;-76
2022/06/30 06:40:26;;;;;;;10.50;9.50;;;;;27.00;100969.00;;;;5047349;28;20207;-76
2022/06/30 06:42:55;;;;;;;12.32;11.07;;;;;27.00;100974.00;;;;5048625;28;20215;-76
2022/06/30 06:45:22;;;;;;;10.38;9.38;;;;;27.00;100970.00;;;;5061348;28;20203;-76
2022/06/30 06:47:50;;;;;;;12.07;9.95;;;;;27.00;100982.00;;;;5066044;28;20195;-74
2022/06/30 06:50:17;;;;;;;10.65;9.52;;;;;27.00;100980.00;;;;5067905;28;20198;-74
2022/06/30 06:52:44;;;;;;;10.35;8.60;;;;;27.10;100984.00;;;;5055148;28;20200;-74
2022/06/30 06:55:11;;;;;;;10.82;9.63;;;;;27.10;100980.00;;;;5052122;28;20223;-74
2022/06/30 06:57:40;;;;;;;9.57;8.05;;;;;27.10;100987.00;;;;5047837;28;20214;-74
2022/06/30 07:00:12;;;;;;;8.75;7.85;;;;;27.10;100987.00;;;;5048945;28;20217;-75
2022/06/30 07:02:40;;;;;;;9.07;7.07;;;;;27.20;100987.00;;;;5055586;28;20620;-75
2022/06/30 07:05:09;;;;;;;7.45;6.72;;;;;27.30;100987.00;;;;5049002;28;20227;-75
2022/06/30 07:07:37;;;;;;;6.95;6.15;;;;;27.30;100995.00;;;;5048262;28;20203;-75
2022/06/30 07:10:06;;;;;;;6.97;6.03;;;;;27.30;100997.00;;;;5047637;28;20687;-75
2022/06/30 07:12:34;;;;;;;7.82;5.55;;;;;27.40;101004.00;;;;5050730;28;20226;-75
2022/06/30 07:15:01;;;;;;;7.57;5.15;;;;;27.40;101012.00;;;;5061781;28;20195;-75
2022/06/30 07:17:34;;;;;;;6.43;4.95;;;;;27.40;101023.00;;;;5062489;28;20201;-75
2022/06/30 07:20:02;;;;;;;4.78;4.22;;;;;27.50;101019.00;;;;5046134;28;20204;-75
2022/06/30 07:22:29;;;;;;;5.38;3.75;;;;;27.50;101027.00;;;;5050472;28;21012;-76
2022/06/30 07:24:56;;;;;;;4.25;3.75;;;;;27.60;101046.00;;;;5053068;28;21037;-75
2022/06/30 07:27:24;;;;;;;4.43;3.40;;;;;27.60;101038.00;;;;5059896;28;20260;-76
2022/06/30 07:29:51;;;;;;;4.65;3.33;;;;;27.70;101047.00;;;;5063070;28;20610;-76
2022/06/30 07:32:19;;;;;;;5.47;3.13;;;;;27.70;101051.00;;;;5054430;28;20210;-76
2022/06/30 07:34:48;;;;;;;5.90;3.40;;;;;27.80;101053.00;;;;5054313;28;20709;-77
2022/06/30 07:37:15;;;;;;;4.43;3.33;;;;;27.80;101060.00;;;;5045223;28;20643;-76
2022/06/30 07:39:43;;;;;;;4.55;4.15;;;;;27.90;101073.00;;;;5047093;28;20200;-77
2022/06/30 07:42:10;;;;;;;4.85;4.07;;;;;27.90;101080.00;;;;5045565;28;20215;-77
2022/06/30 07:44:38;;;;;;;4.82;3.20;;;;;28.00;101077.00;;;;5055647;28;20599;-76
2022/06/30 07:47:05;;;;;;;3.80;3.22;;;;;28.00;101080.00;;;;5059933;28;20199;-77
2022/06/30 07:49:33;;;;;;;4.35;3.40;;;;;28.00;101075.00;;;;5055955;28;20669;-76
2022/06/30 07:52:02;;;;;;;3.80;3.38;;;;;28.10;101077.00;;;;5059462;28;20206;-77
2022/06/30 07:54:29;;;;;;;5.05;3.78;;;;;28.10;101068.00;;;;5052787;28;20227;-77
2022/06/30 07:56:56;;;;;;;4.53;3.58;;;;;28.10;101074.00;;;;5055540;28;20680;-77
2022/06/30 07:59:23;;;;;;;4.43;3.60;;;;;28.20;101068.00;;;;5050702;28;20206;-78
2022/06/30 08:01:51;;;;;;;5.30;3.60;;;;;28.30;101069.00;;;;5055025;28;20214;-78
2022/06/30 08:04:18;;;;;;;4.85;3.33;;;;;28.30;101070.00;;;;5059389;28;20228;-77
2022/06/30 08:06:46;;;;;;;4.70;3.80;;;;;28.30;101065.00;;;;5060264;28;20237;-77
2022/06/30 08:09:14;;;;;;;5.43;3.53;;;;;28.40;101070.00;;;;5057927;28;20314;-77
2022/06/30 08:11:42;;;;;;;4.75;3.28;;;;;28.50;101080.00;;;;5062078;28;20218;-78
2022/06/30 08:14:10;;;;;;;7.40;3.80;;;;;28.50;101079.00;;;;5052959;28;20199;-78
2022/06/30 08:16:37;;;;;;;5.82;3.35;;;;;28.60;101075.00;;;;5059395;28;20199;-78
2022/06/30 08:19:04;;;;;;;4.55;3.15;;;;;28.70;101083.00;;;;5062348;28;20214;-78
2022/06/30 08:21:32;;;;;;;5.10;4.18;;;;;28.70;101082.00;;;;5055490;28;20573;-77
2022/06/30 08:23:59;;;;;;;5.15;2.90;;;;;28.80;101083.00;;;;5056226;28;20224;-78
2022/06/30 08:26:28;;;;;;;7.22;3.30;;;;;28.90;101085.00;;;;5055031;28;20204;-76
2022/06/30 08:28:55;;;;;;;6.85;3.45;;;;;29.00;101083.00;;;;5053062;28;20195;-76
2022/06/30 08:31:23;;;;;;;3.13;2.83;;;;;29.10;101081.00;;;;5051324;28;20215;-76
2022/06/30 08:33:52;;;;;;;4.03;2.35;;;;;29.20;101085.00;;;;5058281;28;20209;-76
2022/06/30 08:36:19;;;;;;;4.88;2.88;;;;;29.30;101078.00;;;;5061460;28;20195;-76
2022/06/30 08:38:46;;;;;;;5.50;3.20;;;;;29.40;101080.00;;;;5056677;28;20198;-76
2022/06/30 08:44:02;;;;;;;3.20;2.38;;;;;29.60;101084.00;;;;5058589;28;20726;-77
2022/06/30 08:46:31;;;;;;;7.03;3.30;;;;;29.70;101073.00;;;;5055195;28;20916;-77
2022/06/30 08:49:00;;;;;;;3.45;2.75;;;;;29.70;101088.00;;;;5059153;28;20195;-77
2022/06/30 08:51:30;;;;;;;5.03;2.90;;;;;29.80;101081.00;;;;5054350;28;20199;-77
2022/06/30 08:53:59;;;;;;;3.35;2.35;;;;;29.90;101086.00;;;;5054926;28;20240;-77
2022/06/30 08:56:31;;;;;;;5.30;2.25;;;;;29.90;101095.00;;;;5049314;28;20276;-77
2022/06/30 08:58:59;;;;;;;2.72;2.20;;;;;30.00;101092.00;;;;5046840;28;20200;-75
2022/06/30 09:01:29;;;;;;;2.30;1.88;;;;;30.00;101094.00;;;;5053335;28;20208;-74
2022/06/30 09:03:57;;;;;;;5.78;2.50;;;;;30.10;101088.00;;;;5064520;28;20191;-75
2022/06/30 09:06:25;;;;;;;3.35;2.22;;;;;30.20;101090.00;;;;5067603;28;20206;-83
2022/06/30 09:08:52;;;;;;;3.60;2.63;;;;;30.30;101095.00;;;;5052537;28;20699;-79
2022/06/30 09:11:19;;;;;;;2.65;1.90;;;;;30.30;101095.00;;;;5046876;28;20677;-78
2022/06/30 09:13:49;;;;;;;3.45;2.10;;;;;30.40;101093.00;;;;5055095;28;20205;-82
2022/06/30 09:16:17;;;;;;;3.42;2.35;;;;;30.50;101086.00;;;;5059617;28;20191;-81
2022/06/30 09:18:46;;;;;;;4.68;2.55;;;;;30.50;101087.00;;;;5060979;28;20281;-81
2022/06/30 09:21:18;;;;;;;3.80;2.30;;;;;30.60;101091.00;;;;5051074;28;20235;-81
2022/06/30 09:23:47;;;;;;;4.32;2.33;;;;;30.70;101088.00;;;;5050360;28;20203;-81
2022/06/30 09:26:19;;;;;;;3.08;1.92;;;;;30.70;101079.00;;;;5052029;28;20195;-85
2022/06/30 09:28:50;;;;;;;3.55;2.28;;;;;30.90;101090.00;;;;5068810;28;20207;-81
2022/06/30 09:31:32;;;;;;;5.30;2.38;;;;;30.90;101087.00;;;;5066351;28;20221;-81
2022/06/30 09:34:12;;;;;;;4.53;2.15;;;;;31.00;101086.00;;;;5054856;28;20187;-82
2022/06/30 09:36:40;;;;;;;5.78;1.55;;;;;31.20;101093.00;;;;5068888;28;20198;-83
2022/06/30 09:39:09;;;;;;;3.10;1.50;;;;;31.20;101094.00;;;;5068180;28;20210;-81
2022/06/30 09:41:39;;;;;;;2.33;1.83;;;;;31.30;101091.00;;;;5070658;28;20631;-82
2022/06/30 09:44:07;;;;;;;3.45;1.80;;;;;31.40;101088.00;;;;5052410;28;20192;-80
2022/06/30 09:46:36;;;;;;;2.03;1.63;;;;;31.40;101089.00;;;;5049841;28;20201;-80
2022/06/30 09:49:05;;;;;;;3.22;1.55;;;;;31.50;101090.00;;;;5048318;28;20207;-80
2022/06/30 09:51:41;;;;;;;3.13;1.52;;;;;31.60;101094.00;;;;5055789;28;20220;-81
2022/06/30 09:54:10;;;;;;;2.55;1.10;;;;;31.70;101101.00;;;;5052591;28;20229;-80
2022/06/30 09:56:38;;;;;;;3.33;1.30;;;;;31.80;101103.00;;;;5048556;28;20283;-80
2022/06/30 09:59:07;;;;;;;2.85;1.55;;;;;31.80;101109.00;;;;5048228;28;20294;-80
2022/06/30 10:01:52;;;;;;;2.28;1.48;;;;;31.80;101116.00;;;;5054743;28;20194;-79
2022/06/30 10:04:21;;;;;;;2.47;1.15;;;;;32.00;101106.00;;;;5061934;28;20214;-80
2022/06/30 10:06:49;;;;;;;3.65;1.40;;;;;32.10;101111.00;;;;5059036;28;20657;-81
2022/06/30 10:09:17;;;;;;;2.92;1.58;;;;;32.20;101116.00;;;;5055010;28;20199;-81
2022/06/30 10:11:45;;;;;;;4.25;1.48;;;;;32.20;101117.00;;;;5065497;28;20206;-79
2022/06/30 10:14:15;;;;;;;2.65;1.60;;;;;32.30;101113.00;;;;5058764;28;20237;-80
2022/06/30 10:16:43;;;;;;;2.97;1.73;;;;;32.30;101121.00;;;;5048476;28;20831;-80
2022/06/30 10:19:11;;;;;;;6.90;1.45;;;;;32.30;101110.00;;;;5048226;28;20199;-82
2022/06/30 10:21:41;;;;;;;2.30;1.30;;;;;32.40;101118.00;;;;5061693;28;20669;-81
2022/06/30 10:24:09;;;;;;;1.77;1.45;;;;;32.50;101121.00;;;;5067252;28;20190;-80
2022/06/30 10:29:22;;;;;;;2.45;1.75;;;;;32.50;101120.00;;;;5058283;28;20576;-81
2022/06/30 10:31:56;;;;;;;2.45;1.25;;;;;32.50;101123.00;;;;5067050;28;20217;-81
2022/06/30 10:34:27;;;;;;;2.03;1.25;;;;;32.50;101118.00;;;;5064040;28;20195;-80
2022/06/30 10:37:05;;;;;;;1.90;1.33;;;;;32.50;101125.00;;;;5068942;28;20190;-79
2022/06/30 10:39:47;;;;;;;4.93;1.67;;;;;32.40;101115.00;;;;5064717;28;20590;-80
2022/06/30 10:42:46;;;;;;;2.42;1.40;;;;;32.40;101111.00;;;;5057429;28;20234;-81
2022/06/30 10:45:36;;;;;;;2.33;1.40;;;;;32.40;101111.00;;;;5060109;28;20199;-82
2022/06/30 10:48:05;;;;;;;1.83;1.17;;;;;32.50;101105.00;;;;5057063;28;20205;-77
2022/06/30 10:50:34;;;;;;;2.38;1.40;;;;;32.50;101105.00;;;;5053579;28;20191;-78
2022/06/30 10:53:04;;;;;;;2.08;1.20;;;;;32.50;101115.00;;;;5053476;28;20196;-78
2022/06/30 10:55:44;;;;;;;2.42;1.17;;;;;32.40;101115.00;;;;5055420;28;20222;-78
2022/06/30 10:58:12;;;;;;;2.10;1.13;;;;;32.50;101111.00;;;;5058779;28;20294;-78
2022/06/30 11:00:48;;;;;;;2.08;1.13;;;;;32.50;101105.00;;;;5059625;28;20186;-78
2022/06/30 11:04:00;;;;;;;3.83;1.38;;;;;32.50;101103.00;;;;5053788;28;20194;-78
2022/06/30 11:07:06;;;;;;;1.67;0.95;;;;;32.50;101088.00;;;;5032411;28;20281;-78
2022/06/30 11:10:18;;;;;;;3.55;1.23;;;;;32.50;101090.00;;;;5046818;28;20314;-78
2022/06/30 11:12:58;;;;;;;1.67;1.00;;;;;32.50;101089.00;;;;5050349;28;20301;-77
2022/06/30 11:15:57;;;;;;;2.30;1.02;;;;;32.50;101087.00;;;;5053851;28;20214;-77
2022/06/30 11:18:25;;;;;;;3.90;1.10;;;;;32.60;101092.00;;;;5059837;28;20205;-77
2022/06/30 11:20:54;;;;;;;0.88;0.80;;;;;32.60;101088.00;;;;5071821;28;20202;-77
2022/06/30 11:23:22;;;;;;;1.30;0.80;;;;;32.60;101092.00;;;;5071327;28;20197;-77
2022/06/30 11:28:41;;;;;;;2.90;1.55;;;;;32.60;101100.00;;;;5051948;28;20214;-77
2022/06/30 11:31:27;;;;;;;2.65;1.10;;;;;32.50;101086.00;;;;5069114;28;20219;-77
2022/06/30 11:33:58;;;;;;;2.97;1.27;;;;;32.60;101086.00;;;;5050793;28;20203;-77
2022/06/30 11:36:25;;;;;;;2.55;1.00;;;;;32.70;101082.00;;;;5051719;28;20229;-78
2022/06/30 11:38:58;;;;;;;2.08;1.10;;;;;32.70;101089.00;;;;5050083;28;20204;-77
2022/06/30 11:44:13;;;;;;;1.20;0.80;;;;;32.70;101076.00;;;;5063781;28;20205;-77
2022/06/30 11:46:53;;;;;;;1.05;0.90;;;;;32.60;101075.00;;;;5063559;28;20199;-78
2022/06/30 11:49:21;;;;;;;1.23;0.82;;;;;32.70;101072.00;;;;5050129;28;20208;-77
2022/06/30 11:51:48;;;;;;;1.92;1.13;;;;;32.70;101072.00;;;;5049699;28;20195;-77
2022/06/30 11:54:17;;;;;;;1.63;1.02;;;;;32.70;101074.00;;;;5055709;28;20210;-77
2022/06/30 11:56:47;;;;;;;7.05;1.33;;;;;32.70;101079.00;;;;5059112;28;20226;-78
2022/06/30 11:59:14;;;;;;;2.83;1.10;;;;;32.70;101074.00;;;;5057368;28;20315;-77
2022/06/30 12:01:42;;;;;;;0.90;0.70;;;;;32.70;101062.00;;;;5061242;28;20973;-78
2022/06/30 12:04:14;;;;;;;3.08;1.00;;;;;32.70;101066.00;;;;5054028;28;20213;-77
2022/06/30 12:06:42;;;;;;;2.58;1.20;;;;;32.70;101066.00;;;;5051052;28;20670;-78
2022/06/30 12:09:09;;;;;;;2.67;1.05;;;;;32.70;101069.00;;;;5059871;28;20206;-76
2022/06/30 12:11:37;;;;;;;2.75;0.65;;;;;32.70;101067.00;;;;5050899;28;20227;-77
2022/06/30 12:14:06;;;;;;;1.85;1.05;;;;;32.60;101050.00;;;;5050077;28;20207;-78
2022/06/30 12:16:34;;;;;;;1.42;0.98;;;;;32.60;101053.00;;;;5050358;28;20227;-78
2022/06/30 12:19:01;;;;;;;1.55;0.93;;;;;32.60;101050.00;;;;5050112;28;20195;-78
2022/06/30 12:21:29;;;;;;;4.28;1.27;;;;;32.50;101049.00;;;;5050252;28;20672;-78
2022/06/30 12:23:57;;;;;;;3.22;1.15;;;;;32.50;101049.00;;;;5050817;28;20200;-77
2022/06/30 12:26:24;;;;;;;2.38;1.00;;;;;32.50;101040.00;;;;5063978;28;20210;-78
2022/06/30 12:28:55;;;;;;;2.10;0.98;;;;;32.40;101043.00;;;;5070079;28;20256;-77
2022/06/30 12:31:28;;;;;;;1.13;0.57;;;;;32.40;101051.00;;;;5069887;28;20215;-78
2022/06/30 12:33:58;;;;;;;1.27;0.82;;;;;32.40;101037.00;;;;5059513;28;20231;-78
2022/06/30 12:36:31;;;;;;;2.75;0.77;;;;;32.30;101028.00;;;;5050451;28;20258;-78
2022/06/30 12:39:10;;;;;;;1.10;0.88;;;;;32.30;101022.00;;;;5049823;28;20199;-78